sensor_id;sensor_type;location;lat;lon;timestamp;pressure;altitude;pressure_sealevel;temperature
21336;BMP180;69435;52.670;13.544;2023-06-10T00:00:45;100967.00;;;21.30
21336;BMP180;69435;52.670;13.544;2023-06-10T00:03:11;100983.00;;;21.30
21336;BMP180;69435;52.670;13.544;2023-06-10T00:05:38;100992.00;;;21.30
21336;BMP180;69435;52.670;13.544;2023-06-10T00:08:07;100997.00;;;21.30
21336;BMP180;69435;52.670;13.544;2023-06-10T00:10:38;101011.00;;;21.20
21336;BMP180;69435;52.670;13.544;2023-06-10T00:13:05;100976.00;;;21.20
21336;BMP180;69435;52.670;13.544;2023-06-10T00:15:34;100981.00;;;21.20
21336;BMP180;69435;52.670;13.544;2023-06-10T00:18:01;100985.00;;;21.20
21336;BMP180;69435;52.670;13.544;2023-06-10T00:20:28;101005.00;;;21.20
21336;BMP180;69435;52.670;13.544;2023-06-10T00:22:54;100913.00;;;21.10
21336;BMP180;69435;52.670;13.544;2023-06-10T00:25:20;100959.00;;;21.10
21336;BMP180;69435;52.670;13.544;2023-06-10T00:27:46;100958.00;;;21.00
21336;BMP180;69435;52.670;13.544;2023-06-10T00:30:12;100948.00;;;20.90
21336;BMP180;69435;52.670;13.544;2023-06-10T00:32:38;100970.00;;;20.90
21336;BMP180;69435;52.670;13.544;2023-06-10T00:35:05;101008.00;;;20.80
21336;BMP180;69435;52.670;13.544;2023-06-10T00:37:32;100964.00;;;20.80
21336;BMP180;69435;52.670;13.544;2023-06-10T00:40:01;100996.00;;;20.70
21336;BMP180;69435;52.670;13.544;2023-06-10T00:42:27;100950.00;;;20.70
21336;BMP180;69435;52.670;13.544;2023-06-10T00:44:54;100955.00;;;20.60
21336;BMP180;69435;52.670;13.544;2023-06-10T00:47:20;100984.00;;;20.60
21336;BMP180;69435;52.670;13.544;2023-06-10T00:49:49;100990.00;;;20.50
21336;BMP180;69435;52.670;13.544;2023-06-10T00:52:18;101003.00;;;20.50
21336;BMP180;69435;52.670;13.544;2023-06-10T00:54:45;100985.00;;;20.40
21336;BMP180;69435;52.670;13.544;2023-06-10T00:57:12;101005.00;;;20.40
21336;BMP180;69435;52.670;13.544;2023-06-10T00:59:47;100996.00;;;20.40
21336;BMP180;69435;52.670;13.544;2023-06-10T01:02:14;100990.00;;;20.40
21336;BMP180;69435;52.670;13.544;2023-06-10T01:04:40;100966.00;;;20.30
21336;BMP180;69435;52.670;13.544;2023-06-10T01:07:23;100982.00;;;20.40
21336;BMP180;69435;52.670;13.544;2023-06-10T01:10:11;101014.00;;;20.40
21336;BMP180;69435;52.670;13.544;2023-06-10T01:13:07;101006.00;;;20.40
21336;BMP180;69435;52.670;13.544;2023-06-10T01:15:35;100971.00;;;20.20
21336;BMP180;69435;52.670;13.544;2023-06-10T01:18:10;100941.00;;;20.30
21336;BMP180;69435;52.670;13.544;2023-06-10T01:20:42;101012.00;;;20.20
21336;BMP180;69435;52.670;13.544;2023-06-10T01:23:10;100993.00;;;20.20
21336;BMP180;69435;52.670;13.544;2023-06-10T01:25:39;101008.00;;;20.20
21336;BMP180;69435;52.670;13.544;2023-06-10T01:28:29;100971.00;;;20.20
21336;BMP180;69435;52.670;13.544;2023-06-10T01:34:01;100974.00;;;20.10
21336;BMP180;69435;52.670;13.544;2023-06-10T01:36:31;100968.00;;;20.10
21336;BMP180;69435;52.670;13.544;2023-06-10T01:39:00;101015.00;;;20.10
21336;BMP180;69435;52.670;13.544;2023-06-10T01:41:29;101009.00;;;20.00
21336;BMP180;69435;52.670;13.544;2023-06-10T01:43:55;100970.00;;;20.00
21336;BMP180;69435;52.670;13.544;2023-06-10T01:46:21;100997.00;;;20.00
21336;BMP180;69435;52.670;13.544;2023-06-10T01:48:48;101005.00;;;20.00
21336;BMP180;69435;52.670;13.544;2023-06-10T01:51:13;101018.00;;;19.90
21336;BMP180;69435;52.670;13.544;2023-06-10T01:53:39;101007.00;;;19.90
21336;BMP180;69435;52.670;13.544;2023-06-10T01:56:06;100979.00;;;19.90
21336;BMP180;69435;52.670;13.544;2023-06-10T01:58:31;101008.00;;;19.90
21336;BMP180;69435;52.670;13.544;2023-06-10T02:00:58;100958.00;;;19.90
21336;BMP180;69435;52.670;13.544;2023-06-10T02:03:23;101011.00;;;19.90
21336;BMP180;69435;52.670;13.544;2023-06-10T02:05:49;100979.00;;;19.80
21336;BMP180;69435;52.670;13.544;2023-06-10T02:08:15;100996.00;;;19.80
21336;BMP180;69435;52.670;13.544;2023-06-10T02:10:41;100978.00;;;19.80
21336;BMP180;69435;52.670;13.544;2023-06-10T02:13:07;100993.00;;;19.70
21336;BMP180;69435;52.670;13.544;2023-06-10T02:15:33;100975.00;;;19.70
21336;BMP180;69435;52.670;13.544;2023-06-10T02:18:00;100997.00;;;19.70
21336;BMP180;69435;52.670;13.544;2023-06-10T02:20:26;100999.00;;;19.70
21336;BMP180;69435;52.670;13.544;2023-06-10T02:22:52;100997.00;;;19.60
21336;BMP180;69435;52.670;13.544;2023-06-10T02:25:18;100996.00;;;19.60
21336;BMP180;69435;52.670;13.544;2023-06-10T02:27:45;101020.00;;;19.60
21336;BMP180;69435;52.670;13.544;2023-06-10T02:30:11;101026.00;;;19.60
21336;BMP180;69435;52.670;13.544;2023-06-10T02:32:37;100978.00;;;19.60
21336;BMP180;69435;52.670;13.544;2023-06-10T02:35:04;100982.00;;;19.60
21336;BMP180;69435;52.670;13.544;2023-06-10T02:37:29;101005.00;;;19.60
21336;BMP180;69435;52.670;13.544;2023-06-10T02:39:55;100977.00;;;19.60
21336;BMP180;69435;52.670;13.544;2023-06-10T02:42:22;100992.00;;;19.50
21336;BMP180;69435;52.670;13.544;2023-06-10T02:44:48;100965.00;;;19.50
21336;BMP180;69435;52.670;13.544;2023-06-10T02:47:14;100993.00;;;19.50
21336;BMP180;69435;52.670;13.544;2023-06-10T02:49:40;100998.00;;;19.50
21336;BMP180;69435;52.670;13.544;2023-06-10T02:52:06;100978.00;;;19.50
21336;BMP180;69435;52.670;13.544;2023-06-10T02:54:33;100976.00;;;19.50
21336;BMP180;69435;52.670;13.544;2023-06-10T02:56:59;100956.00;;;19.50
21336;BMP180;69435;52.670;13.544;2023-06-10T02:59:25;100970.00;;;19.50
21336;BMP180;69435;52.670;13.544;2023-06-10T03:01:52;101022.00;;;19.50
21336;BMP180;69435;52.670;13.544;2023-06-10T03:04:18;101007.00;;;19.40
21336;BMP180;69435;52.670;13.544;2023-06-10T03:06:44;100986.00;;;19.40
21336;BMP180;69435;52.670;13.544;2023-06-10T03:09:11;100961.00;;;19.40
21336;BMP180;69435;52.670;13.544;2023-06-10T03:11:37;100965.00;;;19.40
21336;BMP180;69435;52.670;13.544;2023-06-10T03:14:02;100975.00;;;19.40
21336;BMP180;69435;52.670;13.544;2023-06-10T03:16:28;100981.00;;;19.40
21336;BMP180;69435;52.670;13.544;2023-06-10T03:18:55;100951.00;;;19.40
21336;BMP180;69435;52.670;13.544;2023-06-10T03:21:22;100992.00;;;19.40
21336;BMP180;69435;52.670;13.544;2023-06-10T03:23:48;101010.00;;;19.40
21336;BMP180;69435;52.670;13.544;2023-06-10T03:26:18;100947.00;;;19.50
21336;BMP180;69435;52.670;13.544;2023-06-10T03:28:47;100967.00;;;19.40
21336;BMP180;69435;52.670;13.544;2023-06-10T03:31:13;100933.00;;;19.40
21336;BMP180;69435;52.670;13.544;2023-06-10T03:33:38;101029.00;;;19.40
21336;BMP180;69435;52.670;13.544;2023-06-10T03:36:05;101029.00;;;19.20
21336;BMP180;69435;52.670;13.544;2023-06-10T03:38:30;100952.00;;;19.40
21336;BMP180;69435;52.670;13.544;2023-06-10T03:40:56;101002.00;;;19.40
21336;BMP180;69435;52.670;13.544;2023-06-10T03:43:22;100980.00;;;19.40
21336;BMP180;69435;52.670;13.544;2023-06-10T03:45:48;101013.00;;;19.50
21336;BMP180;69435;52.670;13.544;2023-06-10T03:48:15;101048.00;;;19.50
21336;BMP180;69435;52.670;13.544;2023-06-10T03:50:40;101018.00;;;19.50
21336;BMP180;69435;52.670;13.544;2023-06-10T03:53:08;100958.00;;;19.50
21336;BMP180;69435;52.670;13.544;2023-06-10T03:55:33;101030.00;;;19.60
21336;BMP180;69435;52.670;13.544;2023-06-10T03:57:59;101011.00;;;19.60
21336;BMP180;69435;52.670;13.544;2023-06-10T04:00:25;101005.00;;;19.60
21336;BMP180;69435;52.670;13.544;2023-06-10T04:02:51;101030.00;;;19.70
21336;BMP180;69435;52.670;13.544;2023-06-10T04:05:19;101045.00;;;19.80
21336;BMP180;69435;52.670;13.544;2023-06-10T04:07:48;100993.00;;;19.80
21336;BMP180;69435;52.670;13.544;2023-06-10T04:10:15;101019.00;;;19.90
21336;BMP180;69435;52.670;13.544;2023-06-10T04:12:41;101044.00;;;19.90
21336;BMP180;69435;52.670;13.544;2023-06-10T04:15:08;101014.00;;;19.90
21336;BMP180;69435;52.670;13.544;2023-06-10T04:17:35;101048.00;;;20.00
21336;BMP180;69435;52.670;13.544;2023-06-10T04:20:01;101048.00;;;20.00
21336;BMP180;69435;52.670;13.544;2023-06-10T04:22:29;101026.00;;;20.10
21336;BMP180;69435;52.670;13.544;2023-06-10T04:24:54;100991.00;;;20.10
21336;BMP180;69435;52.670;13.544;2023-06-10T04:27:21;101000.00;;;20.20
21336;BMP180;69435;52.670;13.544;2023-06-10T04:29:46;101011.00;;;20.30
21336;BMP180;69435;52.670;13.544;2023-06-10T04:32:12;101034.00;;;20.30
21336;BMP180;69435;52.670;13.544;2023-06-10T04:34:38;101028.00;;;20.40
21336;BMP180;69435;52.670;13.544;2023-06-10T04:37:07;101048.00;;;20.50
21336;BMP180;69435;52.670;13.544;2023-06-10T04:39:33;101023.00;;;20.50
21336;BMP180;69435;52.670;13.544;2023-06-10T04:41:59;101061.00;;;20.10
21336;BMP180;69435;52.670;13.544;2023-06-10T04:44:25;101011.00;;;20.70
21336;BMP180;69435;52.670;13.544;2023-06-10T04:46:51;101052.00;;;20.80
21336;BMP180;69435;52.670;13.544;2023-06-10T04:49:17;100950.00;;;20.90
21336;BMP180;69435;52.670;13.544;2023-06-10T04:51:43;101055.00;;;21.00
21336;BMP180;69435;52.670;13.544;2023-06-10T04:54:09;100998.00;;;21.10
21336;BMP180;69435;52.670;13.544;2023-06-10T04:56:35;100998.00;;;21.30
21336;BMP180;69435;52.670;13.544;2023-06-10T04:59:02;101050.00;;;21.40
21336;BMP180;69435;52.670;13.544;2023-06-10T05:01:28;101031.00;;;21.50
21336;BMP180;69435;52.670;13.544;2023-06-10T05:03:54;101029.00;;;21.60
21336;BMP180;69435;52.670;13.544;2023-06-10T05:06:20;101019.00;;;21.60
21336;BMP180;69435;52.670;13.544;2023-06-10T05:08:46;101075.00;;;21.70
21336;BMP180;69435;52.670;13.544;2023-06-10T05:11:12;101054.00;;;21.70
21336;BMP180;69435;52.670;13.544;2023-06-10T05:13:41;101078.00;;;21.80
21336;BMP180;69435;52.670;13.544;2023-06-10T05:16:08;101049.00;;;21.80
21336;BMP180;69435;52.670;13.544;2023-06-10T05:18:35;101035.00;;;21.80
21336;BMP180;69435;52.670;13.544;2023-06-10T05:21:04;101072.00;;;21.90
21336;BMP180;69435;52.670;13.544;2023-06-10T05:23:31;101055.00;;;21.90
21336;BMP180;69435;52.670;13.544;2023-06-10T05:26:04;101001.00;;;22.00
21336;BMP180;69435;52.670;13.544;2023-06-10T05:28:30;101045.00;;;22.10
21336;BMP180;69435;52.670;13.544;2023-06-10T05:30:55;101064.00;;;22.20
21336;BMP180;69435;52.670;13.544;2023-06-10T05:33:21;101035.00;;;22.30
21336;BMP180;69435;52.670;13.544;2023-06-10T05:35:47;101058.00;;;22.40
21336;BMP180;69435;52.670;13.544;2023-06-10T05:38:13;101046.00;;;22.20
21336;BMP180;69435;52.670;13.544;2023-06-10T05:40:39;101002.00;;;22.50
21336;BMP180;69435;52.670;13.544;2023-06-10T05:43:05;101034.00;;;22.50
21336;BMP180;69435;52.670;13.544;2023-06-10T05:45:30;101069.00;;;22.60
21336;BMP180;69435;52.670;13.544;2023-06-10T05:47:56;101062.00;;;22.70
21336;BMP180;69435;52.670;13.544;2023-06-10T05:50:24;101072.00;;;22.80
21336;BMP180;69435;52.670;13.544;2023-06-10T05:52:50;101043.00;;;22.90
21336;BMP180;69435;52.670;13.544;2023-06-10T05:55:19;101060.00;;;23.10
21336;BMP180;69435;52.670;13.544;2023-06-10T05:57:45;101073.00;;;23.20
21336;BMP180;69435;52.670;13.544;2023-06-10T06:00:11;101089.00;;;23.30
21336;BMP180;69435;52.670;13.544;2023-06-10T06:02:37;101071.00;;;23.40
21336;BMP180;69435;52.670;13.544;2023-06-10T06:05:03;101070.00;;;23.60
21336;BMP180;69435;52.670;13.544;2023-06-10T06:07:29;101041.00;;;23.60
21336;BMP180;69435;52.670;13.544;2023-06-10T06:09:55;101076.00;;;23.70
21336;BMP180;69435;52.670;13.544;2023-06-10T06:12:22;101011.00;;;23.70
21336;BMP180;69435;52.670;13.544;2023-06-10T06:14:48;101062.00;;;23.80
21336;BMP180;69435;52.670;13.544;2023-06-10T06:17:14;101044.00;;;23.80
21336;BMP180;69435;52.670;13.544;2023-06-10T06:19:41;101059.00;;;23.90
21336;BMP180;69435;52.670;13.544;2023-06-10T06:22:07;101021.00;;;24.00
21336;BMP180;69435;52.670;13.544;2023-06-10T06:24:32;101112.00;;;24.10
21336;BMP180;69435;52.670;13.544;2023-06-10T06:26:58;101064.00;;;24.10
21336;BMP180;69435;52.670;13.544;2023-06-10T06:29:25;101089.00;;;24.20
21336;BMP180;69435;52.670;13.544;2023-06-10T06:31:51;101052.00;;;24.20
21336;BMP180;69435;52.670;13.544;2023-06-10T06:34:17;101115.00;;;24.20
21336;BMP180;69435;52.670;13.544;2023-06-10T06:36:43;101114.00;;;24.30
21336;BMP180;69435;52.670;13.544;2023-06-10T06:39:09;101089.00;;;24.40
21336;BMP180;69435;52.670;13.544;2023-06-10T06:41:35;101104.00;;;24.60
21336;BMP180;69435;52.670;13.544;2023-06-10T06:44:03;101080.00;;;24.70
21336;BMP180;69435;52.670;13.544;2023-06-10T06:46:29;101072.00;;;24.80
21336;BMP180;69435;52.670;13.544;2023-06-10T06:48:57;101104.00;;;24.80
21336;BMP180;69435;52.670;13.544;2023-06-10T06:51:23;101129.00;;;24.90
21336;BMP180;69435;52.670;13.544;2023-06-10T06:53:50;101103.00;;;25.00
21336;BMP180;69435;52.670;13.544;2023-06-10T06:56:17;101120.00;;;25.10
21336;BMP180;69435;52.670;13.544;2023-06-10T06:58:42;101119.00;;;25.20
21336;BMP180;69435;52.670;13.544;2023-06-10T07:01:08;101104.00;;;25.30
21336;BMP180;69435;52.670;13.544;2023-06-10T07:03:34;101138.00;;;25.30
21336;BMP180;69435;52.670;13.544;2023-06-10T07:06:00;101122.00;;;25.30
21336;BMP180;69435;52.670;13.544;2023-06-10T07:08:26;101124.00;;;25.30
21336;BMP180;69435;52.670;13.544;2023-06-10T07:10:51;101130.00;;;25.40
21336;BMP180;69435;52.670;13.544;2023-06-10T07:13:17;101121.00;;;25.60
21336;BMP180;69435;52.670;13.544;2023-06-10T07:15:43;101134.00;;;26.00
21336;BMP180;69435;52.670;13.544;2023-06-10T07:18:10;101147.00;;;26.50
21336;BMP180;69435;52.670;13.544;2023-06-10T07:20:36;101137.00;;;27.00
21336;BMP180;69435;52.670;13.544;2023-06-10T07:23:03;101115.00;;;27.40
21336;BMP180;69435;52.670;13.544;2023-06-10T07:25:29;101104.00;;;27.90
21336;BMP180;69435;52.670;13.544;2023-06-10T07:27:55;101123.00;;;28.70
21336;BMP180;69435;52.670;13.544;2023-06-10T07:30:21;101145.00;;;29.60
21336;BMP180;69435;52.670;13.544;2023-06-10T07:32:47;101151.00;;;30.30
21336;BMP180;69435;52.670;13.544;2023-06-10T07:35:14;101147.00;;;30.90
21336;BMP180;69435;52.670;13.544;2023-06-10T07:37:40;101169.00;;;31.20
21336;BMP180;69435;52.670;13.544;2023-06-10T07:40:06;101137.00;;;31.40
21336;BMP180;69435;52.670;13.544;2023-06-10T07:42:35;101135.00;;;31.50
21336;BMP180;69435;52.670;13.544;2023-06-10T07:45:03;101143.00;;;31.30
21336;BMP180;69435;52.670;13.544;2023-06-10T07:47:30;101194.00;;;30.90
21336;BMP180;69435;52.670;13.544;2023-06-10T07:49:56;101142.00;;;30.60
21336;BMP180;69435;52.670;13.544;2023-06-10T07:52:22;101167.00;;;30.10
21336;BMP180;69435;52.670;13.544;2023-06-10T07:54:48;101182.00;;;29.70
21336;BMP180;69435;52.670;13.544;2023-06-10T07:57:15;101186.00;;;29.40
21336;BMP180;69435;52.670;13.544;2023-06-10T07:59:41;101163.00;;;29.10
21336;BMP180;69435;52.670;13.544;2023-06-10T08:02:07;101150.00;;;28.70
21336;BMP180;69435;52.670;13.544;2023-06-10T08:04:34;101194.00;;;28.50
21336;BMP180;69435;52.670;13.544;2023-06-10T08:07:01;101171.00;;;28.20
21336;BMP180;69435;52.670;13.544;2023-06-10T08:09:28;101196.00;;;28.10
21336;BMP180;69435;52.670;13.544;2023-06-10T08:11:54;101172.00;;;27.90
21336;BMP180;69435;52.670;13.544;2023-06-10T08:14:21;101193.00;;;27.70
21336;BMP180;69435;52.670;13.544;2023-06-10T08:16:47;101171.00;;;27.60
21336;BMP180;69435;52.670;13.544;2023-06-10T08:19:13;101203.00;;;27.30
21336;BMP180;69435;52.670;13.544;2023-06-10T08:21:39;101154.00;;;27.10
21336;BMP180;69435;52.670;13.544;2023-06-10T08:24:09;101173.00;;;26.80
21336;BMP180;69435;52.670;13.544;2023-06-10T08:26:35;101184.00;;;26.50
21336;BMP180;69435;52.670;13.544;2023-06-10T08:29:01;101214.00;;;26.10
21336;BMP180;69435;52.670;13.544;2023-06-10T08:31:27;101219.00;;;25.90
21336;BMP180;69435;52.670;13.544;2023-06-10T08:33:53;101190.00;;;25.70
21336;BMP180;69435;52.670;13.544;2023-06-10T08:36:19;101190.00;;;25.50
21336;BMP180;69435;52.670;13.544;2023-06-10T08:38:45;101208.00;;;25.40
21336;BMP180;69435;52.670;13.544;2023-06-10T08:41:17;101199.00;;;25.30
21336;BMP180;69435;52.670;13.544;2023-06-10T08:43:57;101206.00;;;25.20
21336;BMP180;69435;52.670;13.544;2023-06-10T08:46:25;101184.00;;;25.10
21336;BMP180;69435;52.670;13.544;2023-06-10T08:49:03;101184.00;;;25.20
21336;BMP180;69435;52.670;13.544;2023-06-10T08:51:35;101207.00;;;25.20
21336;BMP180;69435;52.670;13.544;2023-06-10T08:54:11;101209.00;;;25.30
21336;BMP180;69435;52.670;13.544;2023-06-10T08:56:42;101182.00;;;25.20
21336;BMP180;69435;52.670;13.544;2023-06-10T08:59:12;101134.00;;;25.10
21336;BMP180;69435;52.670;13.544;2023-06-10T09:01:39;101209.00;;;25.00
21336;BMP180;69435;52.670;13.544;2023-06-10T09:04:06;101175.00;;;24.90
21336;BMP180;69435;52.670;13.544;2023-06-10T09:06:33;101175.00;;;24.90
21336;BMP180;69435;52.670;13.544;2023-06-10T09:08:59;101168.00;;;24.90
21336;BMP180;69435;52.670;13.544;2023-06-10T09:11:26;101169.00;;;24.90
21336;BMP180;69435;52.670;13.544;2023-06-10T09:13:52;101158.00;;;24.80
21336;BMP180;69435;52.670;13.544;2023-06-10T09:16:19;101187.00;;;24.80
21336;BMP180;69435;52.670;13.544;2023-06-10T09:18:45;101179.00;;;24.80
21336;BMP180;69435;52.670;13.544;2023-06-10T09:21:11;101171.00;;;24.90
21336;BMP180;69435;52.670;13.544;2023-06-10T09:23:37;101159.00;;;25.00
21336;BMP180;69435;52.670;13.544;2023-06-10T09:26:09;101210.00;;;25.10
21336;BMP180;69435;52.670;13.544;2023-06-10T09:28:35;101209.00;;;25.20
21336;BMP180;69435;52.670;13.544;2023-06-10T09:31:06;101154.00;;;25.20
21336;BMP180;69435;52.670;13.544;2023-06-10T09:33:36;101198.00;;;25.40
21336;BMP180;69435;52.670;13.544;2023-06-10T09:36:03;101172.00;;;25.40
21336;BMP180;69435;52.670;13.544;2023-06-10T09:38:34;101196.00;;;25.50
21336;BMP180;69435;52.670;13.544;2023-06-10T09:41:03;101206.00;;;25.40
21336;BMP180;69435;52.670;13.544;2023-06-10T09:43:46;101188.00;;;25.40
21336;BMP180;69435;52.670;13.544;2023-06-10T09:46:19;101203.00;;;25.40
21336;BMP180;69435;52.670;13.544;2023-06-10T09:48:47;101164.00;;;25.30
21336;BMP180;69435;52.670;13.544;2023-06-10T09:51:14;101227.00;;;25.20
21336;BMP180;69435;52.670;13.544;2023-06-10T09:53:42;101174.00;;;25.10
21336;BMP180;69435;52.670;13.544;2023-06-10T09:56:09;101138.00;;;25.00
21336;BMP180;69435;52.670;13.544;2023-06-10T09:58:39;101181.00;;;24.90
21336;BMP180;69435;52.670;13.544;2023-06-10T10:01:13;101223.00;;;24.80
21336;BMP180;69435;52.670;13.544;2023-06-10T10:03:50;101224.00;;;24.70
21336;BMP180;69435;52.670;13.544;2023-06-10T10:06:19;101219.00;;;24.50
21336;BMP180;69435;52.670;13.544;2023-06-10T10:08:50;101226.00;;;24.40
21336;BMP180;69435;52.670;13.544;2023-06-10T10:11:18;101198.00;;;24.30
21336;BMP180;69435;52.670;13.544;2023-06-10T10:13:50;101226.00;;;24.20
21336;BMP180;69435;52.670;13.544;2023-06-10T10:16:33;101248.00;;;24.10
21336;BMP180;69435;52.670;13.544;2023-06-10T10:19:08;101243.00;;;24.00
21336;BMP180;69435;52.670;13.544;2023-06-10T10:21:43;101255.00;;;23.70
21336;BMP180;69435;52.670;13.544;2023-06-10T10:24:23;101231.00;;;23.60
21336;BMP180;69435;52.670;13.544;2023-06-10T10:26:54;101252.00;;;23.40
21336;BMP180;69435;52.670;13.544;2023-06-10T10:29:38;101186.00;;;23.40
21336;BMP180;69435;52.670;13.544;2023-06-10T10:32:07;101137.00;;;23.00
21336;BMP180;69435;52.670;13.544;2023-06-10T10:34:44;101143.00;;;22.90
21336;BMP180;69435;52.670;13.544;2023-06-10T10:37:10;101182.00;;;22.70
21336;BMP180;69435;52.670;13.544;2023-06-10T10:39:37;101166.00;;;22.60
21336;BMP180;69435;52.670;13.544;2023-06-10T10:42:07;101217.00;;;22.60
21336;BMP180;69435;52.670;13.544;2023-06-10T10:44:38;101142.00;;;22.50
21336;BMP180;69435;52.670;13.544;2023-06-10T10:47:08;101100.00;;;22.60
21336;BMP180;69435;52.670;13.544;2023-06-10T10:49:37;101207.00;;;22.60
21336;BMP180;69435;52.670;13.544;2023-06-10T10:52:12;101124.00;;;22.70
21336;BMP180;69435;52.670;13.544;2023-06-10T10:54:45;101165.00;;;22.80
21336;BMP180;69435;52.670;13.544;2023-06-10T10:57:21;101201.00;;;23.00
21336;BMP180;69435;52.670;13.544;2023-06-10T10:59:53;101205.00;;;23.20
21336;BMP180;69435;52.670;13.544;2023-06-10T11:02:45;101181.00;;;23.50
21336;BMP180;69435;52.670;13.544;2023-06-10T11:05:16;101214.00;;;23.70
21336;BMP180;69435;52.670;13.544;2023-06-10T11:08:03;101195.00;;;24.20
21336;BMP180;69435;52.670;13.544;2023-06-10T11:10:38;101192.00;;;24.60
21336;BMP180;69435;52.670;13.544;2023-06-10T11:13:12;101202.00;;;25.10
21336;BMP180;69435;52.670;13.544;2023-06-10T11:15:50;101191.00;;;25.80
21336;BMP180;69435;52.670;13.544;2023-06-10T11:18:28;101176.00;;;26.50
21336;BMP180;69435;52.670;13.544;2023-06-10T11:21:03;101186.00;;;27.10
21336;BMP180;69435;52.670;13.544;2023-06-10T11:23:39;101170.00;;;27.90
21336;BMP180;69435;52.670;13.544;2023-06-10T11:26:29;101200.00;;;28.60
21336;BMP180;69435;52.670;13.544;2023-06-10T11:31:38;101194.00;;;28.90
21336;BMP180;69435;52.670;13.544;2023-06-10T11:34:08;101164.00;;;29.20
21336;BMP180;69435;52.670;13.544;2023-06-10T11:36:43;101166.00;;;29.40
21336;BMP180;69435;52.670;13.544;2023-06-10T11:39:12;101196.00;;;29.60
21336;BMP180;69435;52.670;13.544;2023-06-10T11:41:39;101168.00;;;29.80
21336;BMP180;69435;52.670;13.544;2023-06-10T11:44:13;101190.00;;;30.20
21336;BMP180;69435;52.670;13.544;2023-06-10T11:46:40;101167.00;;;30.50
21336;BMP180;69435;52.670;13.544;2023-06-10T11:49:08;101186.00;;;30.80
21336;BMP180;69435;52.670;13.544;2023-06-10T11:51:37;101187.00;;;31.00
21336;BMP180;69435;52.670;13.544;2023-06-10T11:54:04;101167.00;;;31.20
21336;BMP180;69435;52.670;13.544;2023-06-10T11:56:31;101181.00;;;31.50
21336;BMP180;69435;52.670;13.544;2023-06-10T11:59:03;101181.00;;;31.90
21336;BMP180;69435;52.670;13.544;2023-06-10T12:01:38;101182.00;;;32.10
21336;BMP180;69435;52.670;13.544;2023-06-10T12:04:08;101174.00;;;32.40
21336;BMP180;69435;52.670;13.544;2023-06-10T12:06:43;101181.00;;;32.80
21336;BMP180;69435;52.670;13.544;2023-06-10T12:09:24;101175.00;;;33.10
21336;BMP180;69435;52.670;13.544;2023-06-10T12:11:55;101181.00;;;33.30
21336;BMP180;69435;52.670;13.544;2023-06-10T12:14:56;101165.00;;;33.70
21336;BMP180;69435;52.670;13.544;2023-06-10T12:17:36;101161.00;;;33.80
21336;BMP180;69435;52.670;13.544;2023-06-10T12:20:27;101155.00;;;33.90
21336;BMP180;69435;52.670;13.544;2023-06-10T12:22:54;101166.00;;;33.90
21336;BMP180;69435;52.670;13.544;2023-06-10T12:25:26;101151.00;;;34.00
21336;BMP180;69435;52.670;13.544;2023-06-10T12:27:56;101151.00;;;33.90
21336;BMP180;69435;52.670;13.544;2023-06-10T12:30:26;101164.00;;;33.80
21336;BMP180;69435;52.670;13.544;2023-06-10T12:32:52;101140.00;;;33.80
21336;BMP180;69435;52.670;13.544;2023-06-10T12:35:22;101127.00;;;33.90
21336;BMP180;69435;52.670;13.544;2023-06-10T12:38:02;101157.00;;;34.20
21336;BMP180;69435;52.670;13.544;2023-06-10T12:40:30;101130.00;;;34.20
21336;BMP180;69435;52.670;13.544;2023-06-10T12:42:57;101146.00;;;34.30
21336;BMP180;69435;52.670;13.544;2023-06-10T12:45:31;101150.00;;;34.50
21336;BMP180;69435;52.670;13.544;2023-06-10T12:48:19;101148.00;;;34.70
21336;BMP180;69435;52.670;13.544;2023-06-10T12:50:52;101147.00;;;34.80
21336;BMP180;69435;52.670;13.544;2023-06-10T12:53:20;101123.00;;;34.90
21336;BMP180;69435;52.670;13.544;2023-06-10T12:55:47;101133.00;;;34.90
21336;BMP180;69435;52.670;13.544;2023-06-10T12:58:13;101117.00;;;35.00
21336;BMP180;69435;52.670;13.544;2023-06-10T13:00:40;101122.00;;;35.00
21336;BMP180;69435;52.670;13.544;2023-06-10T13:03:08;101138.00;;;35.10
21336;BMP180;69435;52.670;13.544;2023-06-10T13:05:38;101119.00;;;35.10
21336;BMP180;69435;52.670;13.544;2023-06-10T13:08:08;101103.00;;;35.00
21336;BMP180;69435;52.670;13.544;2023-06-10T13:10:36;101128.00;;;34.90
21336;BMP180;69435;52.670;13.544;2023-06-10T13:13:03;101139.00;;;34.80
21336;BMP180;69435;52.670;13.544;2023-06-10T13:15:34;101119.00;;;34.70
21336;BMP180;69435;52.670;13.544;2023-06-10T13:18:03;101115.00;;;34.50
21336;BMP180;69435;52.670;13.544;2023-06-10T13:20:30;101132.00;;;34.40
21336;BMP180;69435;52.670;13.544;2023-06-10T13:22:56;101087.00;;;34.30
21336;BMP180;69435;52.670;13.544;2023-06-10T13:25:22;101112.00;;;34.30
21336;BMP180;69435;52.670;13.544;2023-06-10T13:27:48;101051.00;;;34.30
21336;BMP180;69435;52.670;13.544;2023-06-10T13:30:14;101084.00;;;34.20
21336;BMP180;69435;52.670;13.544;2023-06-10T13:32:40;101061.00;;;34.30
21336;BMP180;69435;52.670;13.544;2023-06-10T13:35:06;101081.00;;;34.30
21336;BMP180;69435;52.670;13.544;2023-06-10T13:37:33;101089.00;;;34.30
21336;BMP180;69435;52.670;13.544;2023-06-10T13:40:00;101099.00;;;34.30
21336;BMP180;69435;52.670;13.544;2023-06-10T13:42:25;101094.00;;;34.30
21336;BMP180;69435;52.670;13.544;2023-06-10T13:44:54;101106.00;;;34.30
21336;BMP180;69435;52.670;13.544;2023-06-10T13:47:20;101066.00;;;34.20
21336;BMP180;69435;52.670;13.544;2023-06-10T13:49:46;101110.00;;;34.20
21336;BMP180;69435;52.670;13.544;2023-06-10T13:52:17;101074.00;;;34.20
21336;BMP180;69435;52.670;13.544;2023-06-10T13:54:43;101099.00;;;34.20
21336;BMP180;69435;52.670;13.544;2023-06-10T13:57:09;101070.00;;;34.20